Time;durP1;ratioP1;P1;durP2;ratioP2;P2;SDS_P1;SDS_P2;PMS_P1;PMS_P2;Temp;Humidity;BMP_temperature;BMP_pressure;BME280_temperature;BME280_humidity;BME280_pressure;Samples;Min_cycle;Max_cycle;Signal;HPM_P1;HPM_P2
2021/12/27 00:00:02;;;;;;;41.20;27.15;;;4.00;83.90;;;1.80;98.56;95050.75;4978128;28;20126;-65
2021/12/27 00:02:28;;;;;;;36.05;25.50;;;3.90;83.80;;;1.82;98.61;95041.88;4959762;28;20458;-65
2021/12/27 00:04:54;;;;;;;39.20;25.95;;;4.00;83.70;;;1.82;98.41;95038.47;4945024;28;20051;-65
2021/12/27 00:07:20;;;;;;;41.03;27.38;;;4.00;83.70;;;1.80;98.55;95041.19;4959420;28;20462;-65
2021/12/27 00:09:45;;;;;;;41.05;27.08;;;4.00;83.70;;;1.81;98.50;95032.47;4928078;28;20043;-65
2021/12/27 00:12:11;;;;;;;39.03;26.75;;;4.00;83.70;;;1.82;98.27;95039.28;4958615;28;20092;-65
2021/12/27 00:14:37;;;;;;;40.47;27.33;;;4.00;83.80;;;1.84;99.01;95041.72;4995013;28;20039;-65
2021/12/27 00:17:03;;;;;;;38.42;25.77;;;4.00;83.70;;;1.84;99.05;95039.94;4964010;28;20395;-65
2021/12/27 00:19:28;;;;;;;41.20;27.25;;;4.00;83.80;;;1.84;98.16;95037.34;4995049;28;20023;-65
2021/12/27 00:21:54;;;;;;;37.75;26.85;;;4.00;83.80;;;1.84;98.29;95037.34;4959815;28;20040;-65
2021/12/27 00:24:20;;;;;;;37.90;26.52;;;3.90;83.80;;;1.87;98.46;95040.56;4963165;28;20506;-65
2021/12/27 00:26:46;;;;;;;38.60;26.15;;;4.00;83.80;;;1.87;98.78;95035.38;4962239;28;20199;-65
2021/12/27 00:29:11;;;;;;;41.70;28.13;;;4.10;83.70;;;1.86;98.72;95033.75;4944760;28;20490;-65
2021/12/27 00:31:37;;;;;;;40.95;27.50;;;4.00;83.60;;;1.86;98.71;95028.56;4946129;28;20519;-65
2021/12/27 00:34:03;;;;;;;40.53;26.65;;;4.00;83.70;;;1.86;98.72;95028.56;4964563;28;20034;-65
2021/12/27 00:36:29;;;;;;;40.88;27.83;;;4.00;83.70;;;1.83;98.70;95033.13;4980201;28;20613;-65
2021/12/27 00:38:54;;;;;;;39.28;28.33;;;4.00;83.60;;;1.82;98.23;95031.50;4948113;28;20146;-65
2021/12/27 00:41:20;;;;;;;40.92;28.10;;;4.00;83.60;;;1.83;98.75;95030.53;4978407;28;20121;-65
2021/12/27 00:43:46;;;;;;;42.65;27.95;;;4.00;83.60;;;1.83;98.32;95030.53;4994509;28;20571;-65
2021/12/27 00:46:11;;;;;;;43.15;27.88;;;4.00;83.40;;;1.84;98.47;95036.53;4975438;28;20392;-65
2021/12/27 00:48:37;;;;;;;42.60;28.58;;;4.00;83.30;;;1.82;98.15;95035.88;4953518;28;20035;-65
2021/12/27 00:51:03;;;;;;;41.90;27.45;;;3.90;83.60;;;1.80;98.78;95030.81;4964233;28;20437;-65
2021/12/27 00:53:29;;;;;;;38.97;27.10;;;4.00;83.60;;;1.82;98.30;95026.31;4968726;28;20418;-65
2021/12/27 00:55:55;;;;;;;42.15;28.35;;;4.00;83.60;;;1.80;98.65;95028.22;4995414;28;20109;-65
2021/12/27 00:58:21;;;;;;;40.00;27.83;;;4.00;83.40;;;1.81;98.22;95026.44;4965801;28;20042;-65
2021/12/27 01:00:47;;;;;;;45.08;28.85;;;4.00;83.40;;;1.80;98.28;95025.63;4984019;28;20038;-65
2021/12/27 01:03:13;;;;;;;42.33;27.98;;;3.90;83.30;;;1.81;98.53;95031.63;4958800;28;20047;-65
2021/12/27 01:05:39;;;;;;;41.92;27.45;;;4.00;83.60;;;1.79;98.10;95029.19;4965809;28;20187;-65
2021/12/27 01:08:05;;;;;;;43.42;27.92;;;3.90;83.40;;;1.78;98.58;95024.19;4969284;28;20046;-65
2021/12/27 01:11:02;;;;;;;42.08;29.10;;;3.90;83.60;;;1.75;98.55;95027.91;4937970;28;20038;-65
2021/12/27 01:13:22;;;;;;;43.88;28.95;;;3.80;83.60;;;1.73;98.02;95032.44;4969529;28;20077;-65
2021/12/27 01:16:02;;;;;;;44.10;28.33;;;3.80;83.70;;;1.73;98.21;95034.22;4980523;28;21423;-65
2021/12/27 01:18:28;;;;;;;46.30;28.33;;;3.80;83.90;;;1.72;98.45;95027.44;4937882;29;20059;-65
2021/12/27 01:20:54;;;;;;;43.88;28.42;;;3.80;84.00;;;1.73;98.83;95039.41;4947431;28;20077;-65
2021/12/27 01:23:19;;;;;;;43.58;28.35;;;3.80;84.10;;;1.73;98.32;95026.44;4939723;29;20333;-65
2021/12/27 01:25:45;;;;;;;43.60;28.20;;;3.90;83.90;;;1.72;98.44;95023.06;4963627;28;20355;-65
2021/12/27 01:28:11;;;;;;;42.55;28.30;;;3.80;83.80;;;1.72;98.67;95023.06;4999778;28;20050;-65
2021/12/27 01:30:45;;;;;;;43.13;28.55;;;3.90;83.80;;;1.72;98.26;95022.25;4969699;28;20067;-65
2021/12/27 01:33:11;;;;;;;45.80;28.58;;;3.90;83.70;;;1.73;98.72;95034.22;4979811;28;20117;-65
2021/12/27 01:35:37;;;;;;;45.13;28.80;;;3.90;83.70;;;1.74;98.39;95031.47;4957305;28;20039;-65
2021/12/27 01:38:03;;;;;;;46.50;29.40;;;3.90;83.50;;;1.72;98.63;95028.22;4946049;28;20394;-65
2021/12/27 01:40:29;;;;;;;45.65;28.35;;;3.90;83.60;;;1.71;98.56;95026.63;4945528;28;20534;-65
2021/12/27 01:43:20;;;;;;;46.42;28.17;;;3.90;83.60;;;1.72;98.70;95022.25;4962811;28;20047;-65
2021/12/27 01:45:57;;;;;;;45.78;27.90;;;3.90;83.80;;;1.73;98.48;95019.47;4957436;28;20122;-65
2021/12/27 01:48:32;;;;;;;46.28;28.55;;;3.90;83.70;;;1.73;98.37;95013.50;4944907;28;20035;-65
2021/12/27 01:50:58;;;;;;;49.25;29.85;;;3.80;83.60;;;1.72;98.24;95017.06;4943242;28;20090;-65
2021/12/27 01:53:26;;;;;;;43.25;28.10;;;3.80;83.80;;;1.74;98.47;95021.09;4946383;28;20430;-65
2021/12/27 01:55:52;;;;;;;45.63;28.63;;;3.90;83.90;;;1.72;98.66;95022.25;4977999;28;20097;-65
2021/12/27 01:58:18;;;;;;;46.45;29.65;;;3.80;83.70;;;1.70;98.38;95014.63;4968452;28;20042;-65
2021/12/27 02:00:48;;;;;;;44.92;28.67;;;3.80;83.80;;;1.73;98.23;95014.31;4967951;28;20066;-65
2021/12/27 02:03:18;;;;;;;44.67;29.58;;;3.90;83.80;;;1.72;98.83;95017.88;4984304;28;20042;-64
2021/12/27 02:05:44;;;;;;;46.35;28.20;;;3.90;83.80;;;1.72;98.75;95017.88;4949754;28;20098;-65
2021/12/27 02:08:10;;;;;;;45.53;29.67;;;3.80;83.80;;;1.72;98.77;95015.28;4927382;28;20035;-65
2021/12/27 02:10:37;;;;;;;48.08;30.15;;;3.80;84.10;;;1.72;98.74;95020.47;4965179;28;20043;-65
2021/12/27 02:13:02;;;;;;;45.40;30.17;;;3.90;84.10;;;1.74;98.89;95021.09;4933720;28;20357;-65
2021/12/27 02:15:28;;;;;;;46.25;29.80;;;3.90;84.00;;;1.75;98.69;95017.53;4981507;28;20395;-65
2021/12/27 02:17:54;;;;;;;44.95;29.52;;;3.90;83.90;;;1.76;99.28;95018.34;4933508;28;20027;-65
2021/12/27 02:20:23;;;;;;;45.85;29.98;;;3.90;84.20;;;1.78;98.76;95017.22;4951881;28;20450;-65
2021/12/27 02:22:49;;;;;;;45.28;29.92;;;3.90;84.10;;;1.78;99.06;95006.84;4949700;28;20073;-64
2021/12/27 02:25:15;;;;;;;46.78;30.20;;;3.90;84.10;;;1.78;98.99;95006.84;4939846;28;20044;-64
2021/12/27 02:27:43;;;;;;;45.08;29.85;;;3.90;84.10;;;1.78;99.15;94996.47;4970055;28;20035;-64
2021/12/27 02:30:10;;;;;;;47.50;30.25;;;3.90;84.10;;;1.77;98.76;95000.03;4984846;28;20151;-64
2021/12/27 02:32:57;;;;;;;45.40;29.25;;;3.90;84.30;;;1.77;99.21;95000.03;4948580;29;20122;-64
2021/12/27 02:35:26;;;;;;;43.05;28.77;;;3.90;84.30;;;1.76;99.65;94998.41;4967346;28;20043;-64
2021/12/27 02:37:52;;;;;;;42.95;27.52;;;3.90;84.30;;;1.77;99.51;94992.25;4962236;28;20039;-64
2021/12/27 02:40:25;;;;;;;45.10;27.75;;;3.90;84.30;;;1.77;99.41;94994.84;4938854;28;20043;-65
2021/12/27 02:42:56;;;;;;;40.67;27.00;;;4.00;84.20;;;1.79;99.71;94992.91;4966940;28;20057;-64
2021/12/27 02:45:22;;;;;;;42.20;26.67;;;4.00;84.20;;;1.79;99.49;94987.72;4950893;28;20120;-64
2021/12/27 02:47:48;;;;;;;45.88;28.15;;;4.00;84.20;;;1.80;99.41;94994.53;4933993;28;20496;-65
2021/12/27 02:50:14;;;;;;;42.83;27.50;;;4.00;84.30;;;1.80;99.54;94993.72;4939534;28;20410;-65
2021/12/27 02:52:39;;;;;;;41.38;27.77;;;3.90;84.50;;;1.82;99.78;94997.00;4966104;28;20045;-63
2021/12/27 02:55:05;;;;;;;41.70;26.80;;;4.00;84.50;;;1.82;99.78;94984.84;4982645;28;20077;-65
2021/12/27 02:57:31;;;;;;;40.05;27.95;;;4.00;84.50;;;1.86;99.65;94995.69;4962097;28;20043;-64
2021/12/27 02:59:57;;;;;;;42.38;28.80;;;4.10;84.60;;;1.88;99.85;94995.53;4998571;28;20456;-65
2021/12/27 03:02:23;;;;;;;42.30;27.67;;;4.10;84.70;;;1.89;99.75;94999.72;4951299;28;20555;-64
2021/12/27 03:04:49;;;;;;;41.10;27.95;;;4.10;84.70;;;1.90;99.49;94990.97;4947278;28;20031;-66
2021/12/27 03:07:15;;;;;;;43.80;28.95;;;4.10;84.60;;;1.91;100.00;94990.00;4944350;28;20041;-64
2021/12/27 03:09:41;;;;;;;47.08;30.20;;;4.10;84.60;;;1.90;99.80;94984.00;4934346;28;20546;-65
2021/12/27 03:12:11;;;;;;;46.80;30.05;;;4.10;84.60;;;1.93;100.00;94985.47;4966736;28;20523;-65
2021/12/27 03:14:36;;;;;;;46.95;30.38;;;4.10;84.50;;;1.94;99.87;94987.09;4967391;28;20169;-65
2021/12/27 03:17:02;;;;;;;46.50;29.75;;;4.10;84.30;;;1.93;99.88;94988.88;4935736;28;20058;-64
2021/12/27 03:19:28;;;;;;;46.03;29.23;;;4.00;83.90;;;1.88;99.83;94992.94;4968696;28;20084;-64
2021/12/27 03:21:54;;;;;;;48.22;30.10;;;3.90;84.30;;;1.80;99.64;94983.34;4967113;28;20523;-64
2021/12/27 03:24:21;;;;;;;49.83;31.67;;;3.80;84.60;;;1.77;99.46;94992.25;4947187;29;20602;-64
2021/12/27 03:26:47;;;;;;;49.25;30.85;;;3.80;84.80;;;1.73;99.29;94985.78;4964107;28;20034;-64
2021/12/27 03:29:12;;;;;;;51.20;30.25;;;3.70;84.80;;;1.71;99.77;94985.13;4935816;28;20615;-64
2021/12/27 03:31:38;;;;;;;64.45;40.17;;;3.70;84.70;;;1.67;99.48;94983.84;4951579;28;20478;-64
2021/12/27 03:34:04;;;;;;;65.88;41.47;;;3.70;85.20;;;1.69;99.98;94979.31;4966773;28;20502;-64
2021/12/27 03:36:37;;;;;;;53.85;34.47;;;3.80;85.40;;;1.73;100.00;94969.44;4966798;28;20037;-64
2021/12/27 03:39:05;;;;;;;50.63;31.45;;;3.90;85.20;;;1.74;100.00;94974.44;4961548;28;20039;-64
2021/12/27 03:41:31;;;;;;;45.75;30.70;;;3.90;85.00;;;1.75;100.00;94972.66;4964063;28;20051;-65
2021/12/27 03:43:57;;;;;;;45.53;30.38;;;3.90;84.90;;;1.78;100.00;94969.75;4961553;28;20536;-64
2021/12/27 03:46:23;;;;;;;43.85;29.48;;;4.00;84.90;;;1.79;100.00;94966.97;4956021;28;20437;-65
2021/12/27 03:48:48;;;;;;;45.78;28.95;;;4.00;84.80;;;1.81;99.98;94970.25;4948110;29;20522;-64
2021/12/27 03:51:14;;;;;;;45.80;29.52;;;4.00;84.90;;;1.82;100.00;94971.88;4958596;28;20529;-64
2021/12/27 03:53:40;;;;;;;47.67;29.10;;;4.00;84.90;;;1.87;100.00;94973.16;4965896;28;20118;-65
2021/12/27 03:56:08;;;;;;;53.97;34.92;;;4.10;84.80;;;1.89;100.00;94968.63;4980608;28;20031;-64
2021/12/27 03:58:46;;;;;;;55.60;37.63;;;4.10;85.00;;;1.92;100.00;94965.69;4947896;28;20031;-64
2021/12/27 04:01:16;;;;;;;47.60;31.92;;;4.10;85.30;;;1.93;100.00;94962.13;4934632;29;20039;-64
2021/12/27 04:03:44;;;;;;;44.22;30.00;;;4.10;85.00;;;1.93;100.00;94956.94;4946004;28;20081;-64
2021/12/27 04:06:10;;;;;;;42.72;28.80;;;4.10;84.80;;;1.94;100.00;94967.16;4989153;28;20568;-64
2021/12/27 04:08:36;;;;;;;44.40;29.17;;;4.10;84.60;;;1.93;100.00;94962.94;4961105;28;20581;-64
2021/12/27 04:11:02;;;;;;;46.33;29.20;;;4.10;84.60;;;1.94;100.00;94963.75;4929318;28;20066;-64
2021/12/27 04:13:28;;;;;;;53.22;33.08;;;4.10;84.40;;;1.93;100.00;94956.94;4949172;28;20078;-64
2021/12/27 04:15:53;;;;;;;44.33;30.10;;;4.10;84.50;;;1.93;100.00;94954.34;4976470;28;20051;-64
2021/12/27 04:18:19;;;;;;;61.45;39.67;;;4.10;84.40;;;1.91;100.00;94953.69;4944356;28;20043;-64
2021/12/27 04:20:45;;;;;;;75.30;46.75;;;4.10;84.50;;;1.91;100.00;94953.69;4945317;28;20043;-64
2021/12/27 04:23:11;;;;;;;52.25;33.42;;;4.00;84.50;;;1.89;100.00;94955.66;4954292;28;20035;-64
2021/12/27 04:25:37;;;;;;;54.85;34.90;;;4.00;84.40;;;1.87;100.00;94949.81;4950778;28;20046;-64
2021/12/27 04:28:03;;;;;;;50.15;34.17;;;4.00;84.50;;;1.86;99.82;94961.16;4935119;28;20083;-65
2021/12/27 04:30:28;;;;;;;49.72;31.08;;;4.00;84.50;;;1.81;100.00;94952.09;4969686;28;20506;-64
2021/12/27 04:32:54;;;;;;;51.72;33.03;;;3.90;84.80;;;1.82;100.00;94955.50;5000355;28;20034;-64
2021/12/27 04:35:20;;;;;;;49.50;30.92;;;3.90;84.70;;;1.80;99.94;94958.22;4950398;28;20066;-65
2021/12/27 04:37:46;;;;;;;46.20;31.38;;;3.90;84.80;;;1.79;100.00;94966.16;4935161;28;20035;-65
2021/12/27 04:40:13;;;;;;;48.85;31.27;;;3.90;85.00;;;1.77;100.00;94971.53;4967555;28;20046;-64
2021/12/27 04:42:41;;;;;;;46.78;30.27;;;3.90;85.00;;;1.78;100.00;94967.97;4986658;28;20458;-64
2021/12/27 04:45:07;;;;;;;51.03;31.52;;;3.90;85.00;;;1.78;100.00;94972.34;4968270;28;20043;-64
2021/12/27 04:47:32;;;;;;;60.85;39.17;;;3.90;85.10;;;1.76;100.00;94966.50;4971313;28;20490;-64
2021/12/27 04:49:58;;;;;;;58.35;35.90;;;3.90;85.10;;;1.77;100.00;94968.94;4968264;28;20137;-64
2021/12/27 04:52:24;;;;;;;51.47;32.92;;;3.90;85.00;;;1.74;100.00;94969.25;4952023;28;20083;-64
2021/12/27 04:54:49;;;;;;;51.47;31.00;;;3.80;85.10;;;1.72;100.00;94973.00;4963733;28;20118;-64
2021/12/27 04:57:16;;;;;;;50.90;32.28;;;3.80;85.20;;;1.69;100.00;94976.72;4950062;29;20506;-64
2021/12/27 04:59:42;;;;;;;50.90;31.42;;;3.80;85.30;;;1.71;100.00;94973.97;4963561;28;20519;-64
2021/12/27 05:02:07;;;;;;;49.65;30.42;;;3.90;85.20;;;1.73;100.00;94969.44;4969438;28;20144;-64
2021/12/27 05:04:33;;;;;;;44.70;30.13;;;3.90;85.30;;;1.76;100.00;94972.50;4960645;28;20574;-64
2021/12/27 05:06:59;;;;;;;43.90;29.08;;;4.00;85.20;;;1.80;100.00;94970.38;4972620;28;20518;-64
2021/12/27 05:09:25;;;;;;;45.80;29.27;;;4.10;85.20;;;1.80;100.00;94960.81;4986857;28;20086;-64
2021/12/27 05:11:50;;;;;;;44.42;28.05;;;4.10;85.20;;;1.84;100.00;94969.13;4967222;28;20042;-65
2021/12/27 05:14:16;;;;;;;56.78;37.03;;;4.10;85.30;;;1.86;100.00;94967.16;4949501;28;20059;-65
2021/12/27 05:16:42;;;;;;;55.00;34.22;;;4.10;85.50;;;1.90;100.00;94978.81;4964355;28;20435;-64
2021/12/27 05:19:07;;;;;;;71.57;46.67;;;4.20;85.40;;;1.95;100.00;94971.34;4952764;28;20336;-64
2021/12/27 05:21:33;;;;;;;67.35;44.95;;;4.20;85.60;;;1.97;100.00;94963.41;4992097;28;20407;-64
2021/12/27 05:23:59;;;;;;;61.55;39.47;;;4.20;85.20;;;2.00;100.00;94973.44;5001637;28;20063;-64
2021/12/27 05:26:25;;;;;;;52.08;32.78;;;4.20;85.00;;;2.01;100.00;94965.50;4969029;28;20035;-64
2021/12/27 05:28:50;;;;;;;47.97;30.40;;;4.20;84.90;;;2.01;100.00;94964.69;4968163;28;20267;-64
2021/12/27 05:31:16;;;;;;;44.20;30.55;;;4.30;84.70;;;2.03;100.00;94962.75;4985067;28;20054;-64
2021/12/27 05:33:42;;;;;;;47.58;30.95;;;4.20;84.60;;;2.04;100.00;94956.63;4990463;28;20387;-64
2021/12/27 05:36:08;;;;;;;44.17;30.00;;;4.30;84.70;;;2.04;100.00;94954.03;4966680;28;20057;-64
2021/12/27 05:38:34;;;;;;;44.67;29.15;;;4.30;84.80;;;2.06;100.00;94954.66;4934365;29;20386;-64
2021/12/27 05:40:59;;;;;;;43.95;29.80;;;4.30;84.70;;;2.06;100.00;94954.66;4965380;28;20506;-64
2021/12/27 05:43:27;;;;;;;43.72;29.42;;;4.30;84.60;;;2.08;100.00;94955.31;4985581;28;20537;-65
2021/12/27 05:45:52;;;;;;;41.83;28.88;;;4.30;84.70;;;2.06;100.00;94952.88;4966717;28;20042;-65
2021/12/27 05:48:18;;;;;;;44.33;28.80;;;4.30;84.70;;;2.07;100.00;94951.91;4986979;28;20034;-64
2021/12/27 05:50:44;;;;;;;45.25;28.92;;;4.30;84.80;;;2.07;100.00;94949.31;4952954;28;20414;-64
2021/12/27 05:53:10;;;;;;;43.45;28.40;;;4.30;84.80;;;2.10;100.00;94955.94;4969314;28;20459;-64
2021/12/27 05:55:35;;;;;;;40.33;28.15;;;4.30;84.70;;;2.11;100.00;94944.59;4967298;28;20049;-64
2021/12/27 05:58:02;;;;;;;44.00;28.75;;;4.30;84.60;;;2.11;100.00;94954.97;4969678;28;20101;-64
2021/12/27 06:00:28;;;;;;;47.85;29.60;;;4.30;84.60;;;2.13;100.00;94947.84;4940977;28;20514;-65
2021/12/27 06:02:54;;;;;;;47.47;30.23;;;4.40;84.60;;;2.13;100.00;94947.84;4953142;28;20063;-65
2021/12/27 06:05:22;;;;;;;62.88;42.47;;;4.30;84.60;;;2.14;100.00;94950.25;4949298;28;20028;-66
2021/12/27 06:07:48;;;;;;;49.22;32.63;;;4.40;84.60;;;2.13;100.00;94947.84;4960799;28;20039;-68
2021/12/27 06:10:13;;;;;;;52.42;34.15;;;4.30;84.70;;;2.12;100.00;94954.00;4963653;28;20082;-65
2021/12/27 06:12:40;;;;;;;42.13;29.02;;;4.30;84.80;;;2.12;100.00;94952.22;4949789;28;20516;-68
2021/12/27 06:15:07;;;;;;;46.15;29.08;;;4.30;84.70;;;2.14;100.00;94952.03;4942977;28;20035;-70
2021/12/27 06:17:33;;;;;;;47.40;30.98;;;4.40;84.60;;;2.14;100.00;94955.44;4956838;28;20031;-63
2021/12/27 06:20:00;;;;;;;48.63;29.40;;;4.30;84.60;;;2.08;100.00;94956.13;4947258;28;20039;-64
2021/12/27 06:22:28;;;;;;;50.90;31.33;;;4.30;84.20;;;2.07;100.00;94956.28;4950541;28;20078;-64
2021/12/27 06:24:54;;;;;;;51.08;30.73;;;4.10;84.40;;;2.06;100.00;94949.47;4967527;28;20346;-64
2021/12/27 06:27:19;;;;;;;49.13;30.13;;;4.20;84.40;;;2.06;100.00;94957.25;4968082;28;20458;-64
2021/12/27 06:29:45;;;;;;;50.17;30.50;;;4.20;84.50;;;2.05;100.00;94955.63;4935958;28;20035;-65
2021/12/27 06:32:13;;;;;;;43.75;29.20;;;4.20;84.40;;;2.03;100.00;94947.19;4951202;28;20057;-64
2021/12/27 06:34:40;;;;;;;42.20;29.20;;;4.20;84.40;;;2.00;100.00;94939.75;4967335;28;20039;-64
2021/12/27 06:37:06;;;;;;;46.22;28.85;;;4.10;84.60;;;1.98;100.00;94939.09;4926616;29;20427;-65
2021/12/27 06:39:33;;;;;;;46.42;29.83;;;4.10;84.60;;;1.96;100.00;94946.25;4950213;28;20043;-64
2021/12/27 06:41:59;;;;;;;48.05;30.27;;;4.10;84.60;;;1.95;100.00;94944.63;4917548;28;20345;-64
2021/12/27 06:44:25;;;;;;;46.50;29.50;;;4.10;84.60;;;1.94;100.00;94948.19;4940579;28;20039;-65
2021/12/27 06:46:52;;;;;;;45.00;29.73;;;4.10;84.50;;;1.91;100.00;94949.31;4968251;28;20046;-65
2021/12/27 06:49:18;;;;;;;49.97;29.75;;;4.10;84.60;;;1.90;100.00;94946.91;4944946;28;20101;-66
2021/12/27 06:51:44;;;;;;;48.20;31.30;;;4.00;84.40;;;1.87;99.87;94944.63;4980589;28;20039;-65
2021/12/27 06:54:09;;;;;;;49.75;30.45;;;4.00;84.30;;;1.82;100.00;94940.75;4933815;28;20035;-66
2021/12/27 06:56:35;;;;;;;50.10;30.08;;;3.90;84.20;;;1.76;99.94;94936.22;4964747;28;20042;-70
2021/12/27 06:59:02;;;;;;;45.28;28.73;;;3.90;84.30;;;1.74;100.00;94937.34;4967280;28;20088;-70
2021/12/27 07:01:28;;;;;;;44.45;29.00;;;3.80;84.50;;;1.69;99.79;94935.25;4981442;28;20467;-72
2021/12/27 07:03:54;;;;;;;43.78;27.23;;;3.70;84.60;;;1.67;100.00;94937.19;4942763;28;20546;-71
2021/12/27 07:06:20;;;;;;;48.33;30.55;;;3.80;84.60;;;1.64;100.00;94939.31;4931885;28;20118;-69
2021/12/27 07:08:47;;;;;;;49.30;30.17;;;3.80;84.40;;;1.61;99.78;94945.63;4976439;28;20097;-70
2021/12/27 07:11:13;;;;;;;47.53;31.10;;;3.80;84.60;;;1.59;99.96;94939.81;4969832;28;20321;-68
2021/12/27 07:13:39;;;;;;;48.50;29.20;;;3.70;84.60;;;1.59;100.00;94944.97;4952539;28;20047;-68
2021/12/27 07:16:05;;;;;;;48.90;29.38;;;3.70;84.60;;;1.57;100.00;94943.50;4963761;28;20053;-69
2021/12/27 07:18:31;;;;;;;44.55;28.80;;;3.70;84.70;;;1.57;100.00;94946.91;4996662;28;20073;-65
2021/12/27 07:20:56;;;;;;;48.28;30.05;;;3.70;84.70;;;1.56;100.00;94939.28;4937276;28;20065;-65
2021/12/27 07:23:22;;;;;;;48.72;30.23;;;3.70;84.90;;;1.57;100.00;94946.91;4950984;28;20141;-64
2021/12/27 07:25:48;;;;;;;45.78;28.92;;;3.80;85.00;;;1.58;100.00;94932.97;4950102;28;20038;-65
2021/12/27 07:28:14;;;;;;;51.13;30.27;;;3.80;84.70;;;1.59;100.00;94939.00;4934898;28;20062;-65
2021/12/27 07:30:39;;;;;;;49.45;29.80;;;3.90;84.70;;;1.61;100.00;94937.84;4927258;29;20039;-64
2021/12/27 07:33:05;;;;;;;45.72;29.70;;;3.90;84.80;;;1.66;100.00;94932.19;4940123;28;20043;-64
2021/12/27 07:35:31;;;;;;;46.80;28.38;;;4.00;84.60;;;1.72;100.00;94940.09;4947870;28;20043;-64
2021/12/27 07:37:57;;;;;;;42.83;28.95;;;4.10;84.60;;;1.75;100.00;94937.19;4944422;28;20081;-64
2021/12/27 07:40:22;;;;;;;46.28;28.73;;;4.20;84.40;;;1.79;100.00;94935.88;4941981;29;20134;-67
2021/12/27 07:42:48;;;;;;;46.55;31.52;;;4.20;84.00;;;1.86;100.00;94932.66;4956952;28;20527;-66
2021/12/27 07:45:14;;;;;;;53.28;35.83;;;4.30;84.10;;;1.91;100.00;94933.78;4966578;28;20053;-67
2021/12/27 07:47:39;;;;;;;59.83;40.00;;;4.40;84.10;;;1.99;100.00;94930.34;4967438;28;20066;-67
2021/12/27 07:50:06;;;;;;;56.05;37.10;;;4.50;84.10;;;2.06;100.00;94929.53;4966444;28;20054;-66
2021/12/27 07:52:32;;;;;;;46.58;31.33;;;4.60;83.90;;;2.09;100.00;94928.41;4951598;28;20385;-67
2021/12/27 07:54:57;;;;;;;44.45;30.73;;;4.60;83.40;;;2.15;100.00;94930.31;4951079;28;20042;-67
2021/12/27 07:57:23;;;;;;;46.35;29.40;;;4.60;83.30;;;2.21;100.00;94934.84;4972207;28;20498;-66
2021/12/27 07:59:50;;;;;;;42.45;29.35;;;4.60;83.30;;;2.22;100.00;94922.69;4955092;28;20090;-67
2021/12/27 08:02:16;;;;;;;45.20;30.17;;;4.60;83.10;;;2.22;100.00;94915.69;4967509;28;20032;-66
2021/12/27 08:04:42;;;;;;;44.75;31.30;;;4.60;83.00;;;2.25;100.00;94920.56;4920642;28;20205;-66
2021/12/27 08:07:07;;;;;;;41.30;29.50;;;4.60;82.80;;;2.27;100.00;94923.00;4971234;28;20121;-66
2021/12/27 08:09:33;;;;;;;45.20;31.60;;;4.70;82.70;;;2.25;99.67;94915.38;4954918;28;20149;-67
2021/12/27 08:11:59;;;;;;;44.70;30.05;;;4.60;82.80;;;2.26;99.62;94921.38;4954351;28;20106;-67
2021/12/27 08:14:25;;;;;;;47.08;31.77;;;4.60;82.50;;;2.23;99.49;94914.72;4954494;28;20030;-67
2021/12/27 08:16:50;;;;;;;46.05;31.45;;;4.50;82.40;;;2.19;99.37;94905.66;4935864;28;20572;-67
2021/12/27 08:19:16;;;;;;;46.15;29.67;;;4.50;82.40;;;2.18;99.50;94908.44;4936903;28;20031;-67
2021/12/27 08:21:42;;;;;;;45.63;31.58;;;4.50;82.40;;;2.14;99.03;94908.75;4972423;28;20470;-66
2021/12/27 08:24:08;;;;;;;47.15;31.45;;;4.40;82.40;;;2.12;98.89;94900.34;4970340;28;20546;-66
2021/12/27 08:26:34;;;;;;;48.38;32.83;;;4.40;82.40;;;2.13;99.20;94908.94;4954696;28;20195;-66
2021/12/27 08:29:01;;;;;;;50.10;31.80;;;4.40;82.40;;;2.09;99.07;94907.66;4971026;28;20312;-66
2021/12/27 08:31:27;;;;;;;46.17;31.67;;;4.40;82.50;;;2.13;98.92;94909.75;4970645;28;20039;-66
2021/12/27 08:33:52;;;;;;;47.60;31.42;;;4.50;82.50;;;2.15;99.25;94914.75;4945930;28;20462;-67
2021/12/27 08:36:19;;;;;;;44.90;31.83;;;4.50;82.50;;;2.17;99.36;94901.63;4950761;28;20594;-67
2021/12/27 08:38:48;;;;;;;50.50;33.78;;;4.60;82.30;;;2.19;98.81;94905.66;4965437;28;20507;-65
2021/12/27 08:41:13;;;;;;;45.65;31.27;;;4.60;82.40;;;2.20;98.92;94904.69;4986098;28;20133;-67
2021/12/27 08:43:39;;;;;;;48.13;32.63;;;4.60;82.20;;;2.20;99.36;94898.69;4969267;28;20273;-68
2021/12/27 08:46:05;;;;;;;48.60;32.17;;;4.60;82.50;;;2.26;99.22;94898.00;4970505;28;20055;-69
2021/12/27 08:48:31;;;;;;;45.75;32.47;;;4.80;82.10;;;2.32;99.59;94895.56;4944603;28;20097;-69
2021/12/27 08:50:56;;;;;;;45.45;30.73;;;5.00;81.90;;;2.41;99.70;94889.38;4968183;28;20178;-67
2021/12/27 08:53:22;;;;;;;46.88;31.83;;;5.10;81.80;;;2.48;99.55;94894.69;4962679;28;20059;-69
2021/12/27 08:55:48;;;;;;;44.58;30.75;;;5.10;81.90;;;2.57;100.00;94893.69;4960578;28;20075;-68
2021/12/27 08:58:13;;;;;;;41.35;29.00;;;5.20;81.80;;;2.65;99.85;94890.25;4951673;28;20138;-68
2021/12/27 09:00:39;;;;;;;42.40;30.58;;;5.20;82.00;;;2.73;100.00;94898.00;4951228;28;20097;-70
2021/12/27 09:03:05;;;;;;;41.53;30.13;;;5.40;82.10;;;2.83;100.00;94896.00;4970822;28;20343;-69
2021/12/27 09:05:31;;;;;;;38.35;29.42;;;5.50;82.00;;;2.90;100.00;94889.13;4970680;28;20058;-69
2021/12/27 09:07:56;;;;;;;40.08;29.00;;;5.60;81.80;;;3.02;100.00;94887.78;4967903;28;20035;-68
2021/12/27 09:10:22;;;;;;;38.28;29.48;;;5.70;81.60;;;3.11;99.79;94896.31;4964963;28;20034;-69
2021/12/27 09:12:48;;;;;;;34.58;25.98;;;5.70;81.20;;;3.19;100.00;94888.47;4969701;28;20147;-71
2021/12/27 09:15:16;;;;;;;33.60;26.23;;;5.80;81.50;;;3.26;99.97;94892.00;4968725;28;20038;-71
2021/12/27 09:17:42;;;;;;;35.63;26.50;;;5.80;81.50;;;3.34;99.69;94886.72;4937443;28;20045;-69
2021/12/27 09:20:09;;;;;;;34.05;26.83;;;6.00;81.20;;;3.43;99.51;94890.09;4936244;28;20047;-70
2021/12/27 09:22:36;;;;;;;31.02;23.42;;;6.10;80.60;;;3.51;98.84;94884.81;4970657;28;20064;-69
2021/12/27 09:25:02;;;;;;;35.00;27.67;;;6.20;80.40;;;3.59;98.94;94884.72;4955179;28;20041;-68
2021/12/27 09:27:28;;;;;;;36.42;26.00;;;6.30;80.10;;;3.68;99.12;94883.69;4963514;28;20042;-67
2021/12/27 09:29:53;;;;;;;33.38;26.10;;;6.40;79.70;;;3.78;98.26;94888.63;4950991;28;20043;-66
2021/12/27 09:32:19;;;;;;;30.45;24.90;;;6.60;79.20;;;3.90;98.04;94891.63;4952692;28;20131;-67
2021/12/27 09:34:45;;;;;;;31.30;25.08;;;6.90;78.60;;;4.05;98.24;94889.03;4953296;28;20069;-67
2021/12/27 09:37:11;;;;;;;31.48;25.60;;;7.10;78.00;;;4.19;98.05;94876.03;4974339;28;20039;-66
2021/12/27 09:39:36;;;;;;;35.45;27.40;;;7.30;77.60;;;4.28;97.63;94864.53;4997876;28;20486;-66
2021/12/27 09:42:03;;;;;;;34.17;27.50;;;7.30;77.20;;;4.36;97.42;94865.44;4918773;28;20578;-66
2021/12/27 09:44:29;;;;;;;34.38;26.85;;;7.40;77.00;;;4.46;96.26;94871.16;4965303;28;20134;-66
2021/12/27 09:46:55;;;;;;;32.55;26.67;;;7.50;76.40;;;4.55;96.13;94872.69;4951077;28;20077;-66
2021/12/27 09:49:22;;;;;;;32.15;25.73;;;7.70;76.10;;;4.67;95.59;94868.63;4920059;28;20059;-69
2021/12/27 09:51:47;;;;;;;30.83;25.27;;;7.80;76.00;;;4.79;95.56;94871.56;4967246;28;20034;-67
2021/12/27 09:54:16;;;;;;;31.17;25.65;;;7.90;75.40;;;4.87;96.15;94869.66;4950429;28;20494;-67
2021/12/27 09:56:42;;;;;;;28.80;23.55;;;8.10;74.90;;;4.96;95.38;94861.72;4949408;28;20422;-67
2021/12/27 09:59:08;;;;;;;30.05;23.42;;;8.30;73.90;;;5.11;95.11;94859.88;4934637;29;20043;-66
2021/12/27 10:01:33;;;;;;;34.65;26.92;;;8.70;73.10;;;5.33;95.35;94863.31;4961276;28;20433;-66
2021/12/27 10:04:00;;;;;;;32.08;26.38;;;9.30;71.90;;;5.58;94.68;94855.88;4949114;28;20332;-67
2021/12/27 10:06:27;;;;;;;35.40;27.80;;;9.80;70.00;;;5.82;94.06;94847.66;4932909;29;20062;-67
2021/12/27 10:08:57;;;;;;;26.42;21.50;;;10.20;68.50;;;6.07;93.89;94851.47;4955305;28;20031;-67
2021/12/27 10:11:32;;;;;;;27.30;21.38;;;10.90;65.80;;;6.31;93.05;94844.16;4942483;28;20438;-64